Time;durP1;ratioP1;P1;durP2;ratioP2;P2;SDS_P1;SDS_P2;PMS_P1;PMS_P2;Temp;Humidity;BMP_temperature;BMP_pressure;BME280_temperature;BME280_humidity;BME280_pressure;Samples;Min_cycle;Max_cycle;Signal;HPM_P1;HPM_P2
2023/05/21 18:11:46;;;;;;;21.77;15.90;;;;;;;;;;5310314;22;1307918;-60
2023/05/21 18:14:12;;;;;;;21.25;15.63;;;;;;;;;;5056077;28;20020;-60
2023/05/21 18:16:38;;;;;;;19.02;16.45;;;;;;;;;;5038340;28;20581;-59
2023/05/21 18:19:05;;;;;;;25.17;18.55;;;;;;;;;;5034731;28;20415;-59
2023/05/21 18:21:32;;;;;;;24.27;17.23;;;;;;;;;;5035043;28;21517;-60
2023/05/21 18:23:58;;;;;;;24.02;17.40;;;;;;;;;;5036021;28;20124;-59
2023/05/21 18:26:24;;;;;;;30.63;19.25;;;;;;;;;;5036733;28;20160;-60
2023/05/21 18:28:50;;;;;;;24.48;18.20;;;;;;;;;;5034866;28;20029;-59
2023/05/21 18:31:16;;;;;;;20.52;16.10;;;;;;;;;;5035740;28;20027;-60
2023/05/21 18:33:42;;;;;;;19.48;16.15;;;;;;;;;;5035640;28;20013;-59
2023/05/21 18:36:09;;;;;;;18.90;14.65;;;;;;;;;;5034468;28;21861;-59
2023/05/21 18:38:35;;;;;;;22.60;16.23;;;;;;;;;;5037307;28;20388;-59
2023/05/21 18:41:02;;;;;;;21.80;15.90;;;;;;;;;;5036729;28;20083;-60
2023/05/21 18:43:28;;;;;;;18.50;16.38;;;;;;;;;;5035600;28;20036;-60
2023/05/21 18:45:54;;;;;;;20.10;16.33;;;;;;;;;;5035269;28;20605;-59
2023/05/21 18:48:20;;;;;;;20.50;16.55;;;;;;;;;;5034913;28;20143;-59
2023/05/21 18:50:46;;;;;;;21.15;16.25;;;;;;;;;;5033940;28;20013;-60
2023/05/21 18:53:12;;;;;;;20.33;16.27;;;;;;;;;;5034769;28;20096;-60
2023/05/21 18:55:38;;;;;;;21.98;16.35;;;;;;;;;;5034997;28;21515;-59
2023/05/21 18:58:04;;;;;;;22.10;16.30;;;;;;;;;;5035661;28;20036;-59
2023/05/21 19:00:32;;;;;;;20.45;15.20;;;;;;;;;;5035854;28;20028;-59
2023/05/21 19:02:58;;;;;;;18.52;15.25;;;;;;;;;;5035948;28;20048;-59
2023/05/21 19:05:25;;;;;;;19.92;16.58;;;;;;;;;;5036587;28;20424;-60
2023/05/21 19:07:51;;;;;;;20.40;15.00;;;;;;;;;;5033935;28;20031;-59
2023/05/21 19:10:18;;;;;;;19.73;15.00;;;;;;;;;;5033310;28;20076;-59
2023/05/21 19:12:44;;;;;;;19.20;15.38;;;;;;;;;;5034742;28;20372;-59
2023/05/21 19:15:11;;;;;;;20.60;16.15;;;;;;;;;;5035218;28;20041;-60
2023/05/21 19:17:38;;;;;;;18.98;15.43;;;;;;;;;;5035040;28;20025;-60
2023/05/21 19:20:05;;;;;;;22.05;16.73;;;;;;;;;;5035149;28;20037;-60
2023/05/21 19:22:31;;;;;;;19.48;15.45;;;;;;;;;;5034491;28;20044;-59
2023/05/21 19:24:58;;;;;;;20.88;15.70;;;;;;;;;;5034076;28;20040;-60
2023/05/21 19:27:24;;;;;;;21.00;15.32;;;;;;;;;;5035201;28;20874;-60
2023/05/21 19:29:50;;;;;;;26.13;17.33;;;;;;;;;;5036539;28;20053;-60
2023/05/21 19:32:16;;;;;;;20.65;14.80;;;;;;;;;;5035806;28;20587;-60
2023/05/21 19:34:42;;;;;;;17.23;14.55;;;;;;;;;;5036389;28;20033;-59
2023/05/21 19:37:09;;;;;;;22.40;14.23;;;;;;;;;;5035107;28;20079;-60
2023/05/21 19:39:38;;;;;;;24.08;17.50;;;;;;;;;;5036744;28;20067;-60
2023/05/21 19:42:04;;;;;;;21.70;15.68;;;;;;;;;;5036752;28;20047;-60
2023/05/21 19:44:31;;;;;;;19.10;14.43;;;;;;;;;;5036175;28;20552;-60
2023/05/21 19:46:57;;;;;;;19.95;16.02;;;;;;;;;;5022097;28;20049;-60
2023/05/21 19:49:23;;;;;;;20.98;15.32;;;;;;;;;;5036918;28;20037;-60
2023/05/21 19:51:50;;;;;;;19.98;16.08;;;;;;;;;;5035430;28;20427;-59
2023/05/21 19:54:17;;;;;;;22.67;16.55;;;;;;;;;;5036126;28;20045;-59
2023/05/21 19:56:43;;;;;;;18.90;14.70;;;;;;;;;;5035790;28;20033;-60
2023/05/21 19:59:10;;;;;;;24.00;15.65;;;;;;;;;;5035593;28;20025;-60
2023/05/21 20:01:38;;;;;;;20.75;15.45;;;;;;;;;;5036360;28;20051;-60
2023/05/21 20:04:04;;;;;;;21.02;15.25;;;;;;;;;;5035752;28;20039;-60
2023/05/21 20:06:30;;;;;;;19.83;15.98;;;;;;;;;;5036354;28;20109;-60
2023/05/21 20:08:57;;;;;;;20.30;14.88;;;;;;;;;;5036306;28;20434;-60
2023/05/21 20:11:23;;;;;;;18.38;12.85;;;;;;;;;;5035001;28;20032;-60
2023/05/21 20:13:49;;;;;;;22.05;15.68;;;;;;;;;;5035197;28;20052;-60
2023/05/21 20:16:18;;;;;;;19.23;15.95;;;;;;;;;;5036407;28;20132;-60
2023/05/21 20:18:48;;;;;;;21.17;14.70;;;;;;;;;;5035375;28;20029;-59
2023/05/21 20:21:16;;;;;;;22.77;16.15;;;;;;;;;;5035207;28;20520;-60
2023/05/21 20:23:42;;;;;;;21.40;15.13;;;;;;;;;;5036356;28;20055;-59
2023/05/21 20:26:08;;;;;;;19.92;15.05;;;;;;;;;;5035608;28;20806;-60
2023/05/21 20:28:35;;;;;;;22.20;14.85;;;;;;;;;;5035230;28;21762;-60
2023/05/21 20:31:01;;;;;;;20.05;14.45;;;;;;;;;;5036666;28;20021;-59
2023/05/21 20:33:27;;;;;;;18.73;15.25;;;;;;;;;;5036011;28;20090;-59
2023/05/21 20:35:54;;;;;;;20.70;15.63;;;;;;;;;;5035494;28;20032;-59
2023/05/21 20:38:20;;;;;;;19.98;14.95;;;;;;;;;;5039347;28;20433;-59
2023/05/21 20:40:46;;;;;;;19.85;15.20;;;;;;;;;;5038132;28;20033;-60
2023/05/21 20:43:13;;;;;;;19.23;16.02;;;;;;;;;;5039024;28;22059;-60
2023/05/21 20:45:40;;;;;;;21.17;14.93;;;;;;;;;;5039768;28;20024;-60
2023/05/21 20:48:08;;;;;;;17.45;14.93;;;;;;;;;;5038921;28;20079;-59
2023/05/21 20:50:35;;;;;;;17.70;14.65;;;;;;;;;;5037840;28;20426;-59
2023/05/21 20:53:02;;;;;;;25.58;16.45;;;;;;;;;;5039107;28;20115;-59
2023/05/21 20:55:33;;;;;;;21.65;16.65;;;;;;;;;;5037065;28;20051;-59
2023/05/21 20:57:59;;;;;;;19.20;15.57;;;;;;;;;;5037251;28;20036;-59
2023/05/21 21:00:25;;;;;;;21.20;15.70;;;;;;;;;;5036122;28;20033;-60
2023/05/21 21:02:51;;;;;;;18.73;16.48;;;;;;;;;;5035847;28;20137;-59
2023/05/21 21:05:18;;;;;;;19.63;15.98;;;;;;;;;;5038487;28;20029;-60
2023/05/21 21:07:44;;;;;;;22.90;16.25;;;;;;;;;;5038369;28;20040;-60
2023/05/21 21:10:10;;;;;;;21.52;16.02;;;;;;;;;;5038433;28;20044;-60
2023/05/21 21:12:37;;;;;;;19.92;16.63;;;;;;;;;;5038575;28;20048;-59
2023/05/21 21:15:03;;;;;;;19.25;15.38;;;;;;;;;;5036656;28;20049;-60
2023/05/21 21:17:29;;;;;;;19.95;17.17;;;;;;;;;;5037920;28;20394;-59
2023/05/21 21:19:55;;;;;;;21.92;17.33;;;;;;;;;;5036199;28;20156;-60
2023/05/21 21:22:21;;;;;;;22.90;17.40;;;;;;;;;;5035508;28;20030;-60
2023/05/21 21:24:47;;;;;;;24.75;18.80;;;;;;;;;;5037385;28;20151;-60
2023/05/21 21:27:13;;;;;;;22.50;17.15;;;;;;;;;;5037093;28;20029;-59
2023/05/21 21:29:39;;;;;;;22.80;17.02;;;;;;;;;;5036240;28;20065;-59
2023/05/21 21:32:06;;;;;;;22.02;17.05;;;;;;;;;;5038859;28;20041;-59
2023/05/21 21:34:32;;;;;;;21.58;16.98;;;;;;;;;;5036983;28;20041;-59
2023/05/21 21:36:58;;;;;;;21.67;17.98;;;;;;;;;;5036697;28;20041;-59
2023/05/21 21:39:25;;;;;;;25.20;18.15;;;;;;;;;;5038598;28;20689;-59
2023/05/21 21:41:51;;;;;;;24.58;18.98;;;;;;;;;;5036681;28;20021;-60
2023/05/21 21:44:17;;;;;;;24.77;18.15;;;;;;;;;;5034567;28;20044;-59
2023/05/21 21:46:43;;;;;;;24.40;18.50;;;;;;;;;;5038339;28;20039;-59
2023/05/21 21:49:09;;;;;;;19.48;17.25;;;;;;;;;;5037376;28;20499;-59
2023/05/21 21:51:36;;;;;;;35.63;19.58;;;;;;;;;;5038814;28;20057;-59
2023/05/21 21:54:02;;;;;;;22.02;17.23;;;;;;;;;;5037928;28;20048;-60
2023/05/21 21:56:29;;;;;;;26.02;18.33;;;;;;;;;;5038531;28;20037;-59
2023/05/21 21:58:55;;;;;;;24.30;19.50;;;;;;;;;;5038223;28;20044;-60
2023/05/21 22:01:21;;;;;;;25.65;18.63;;;;;;;;;;5037605;28;20049;-59
2023/05/21 22:03:47;;;;;;;25.10;17.90;;;;;;;;;;5038252;28;20033;-60
2023/05/21 22:06:13;;;;;;;22.17;18.17;;;;;;;;;;5036268;28;20048;-59
2023/05/21 22:08:39;;;;;;;23.80;19.02;;;;;;;;;;5038914;28;20036;-60
2023/05/21 22:11:05;;;;;;;22.75;19.17;;;;;;;;;;5037762;28;20128;-60
2023/05/21 22:13:33;;;;;;;26.48;18.98;;;;;;;;;;5037821;28;21046;-59
2023/05/21 22:16:00;;;;;;;21.83;18.27;;;;;;;;;;5038078;28;20029;-59
2023/05/21 22:18:27;;;;;;;26.40;19.48;;;;;;;;;;5038196;28;20031;-59
2023/05/21 22:20:54;;;;;;;20.95;16.70;;;;;;;;;;5038012;28;20040;-60
2023/05/21 22:23:20;;;;;;;22.23;18.60;;;;;;;;;;5037736;28;20020;-59
2023/05/21 22:25:46;;;;;;;27.48;20.70;;;;;;;;;;5037722;28;20025;-59
2023/05/21 22:28:13;;;;;;;24.67;19.40;;;;;;;;;;5037752;28;20033;-59
2023/05/21 22:30:39;;;;;;;23.08;19.05;;;;;;;;;;5038280;28;20036;-59
2023/05/21 22:33:05;;;;;;;23.65;18.23;;;;;;;;;;5037110;28;20048;-60
2023/05/21 22:35:31;;;;;;;23.88;19.95;;;;;;;;;;5036618;28;20490;-59
2023/05/21 22:37:57;;;;;;;24.52;19.70;;;;;;;;;;5036575;28;20084;-60
2023/05/21 22:40:23;;;;;;;21.65;17.55;;;;;;;;;;5037951;28;20112;-59
2023/05/21 22:42:50;;;;;;;22.08;18.08;;;;;;;;;;5038386;28;20037;-63
2023/05/21 22:45:17;;;;;;;23.80;19.02;;;;;;;;;;5037934;28;20029;-64
2023/05/21 22:47:43;;;;;;;21.20;17.92;;;;;;;;;;5036882;28;20075;-63
2023/05/21 22:50:09;;;;;;;31.55;18.67;;;;;;;;;;5035486;28;20036;-64
2023/05/21 22:52:37;;;;;;;21.83;18.58;;;;;;;;;;5035535;28;20037;-65
2023/05/21 22:55:04;;;;;;;23.60;19.20;;;;;;;;;;5036265;28;20025;-65
2023/05/21 22:57:30;;;;;;;21.02;17.98;;;;;;;;;;5037044;28;20744;-64
2023/05/21 22:59:57;;;;;;;21.02;17.35;;;;;;;;;;5035175;28;20041;-64
2023/05/21 23:02:23;;;;;;;20.90;17.15;;;;;;;;;;5036711;28;20037;-64
2023/05/21 23:04:49;;;;;;;23.55;19.80;;;;;;;;;;5035797;28;20025;-64
2023/05/21 23:07:15;;;;;;;27.27;18.58;;;;;;;;;;5034037;28;20033;-64
2023/05/21 23:09:41;;;;;;;21.92;18.45;;;;;;;;;;5036239;28;20060;-64
2023/05/21 23:12:07;;;;;;;25.85;17.52;;;;;;;;;;5035772;28;20041;-65
2023/05/21 23:14:33;;;;;;;20.95;17.42;;;;;;;;;;5035688;28;20082;-64
2023/05/21 23:17:03;;;;;;;22.33;17.38;;;;;;;;;;5036126;28;20551;-65
2023/05/21 23:19:30;;;;;;;19.83;17.08;;;;;;;;;;5035752;28;20123;-64
2023/05/21 23:21:56;;;;;;;21.08;17.10;;;;;;;;;;5034636;28;20040;-64
2023/05/21 23:24:22;;;;;;;20.95;17.52;;;;;;;;;;5036461;28;20054;-64
2023/05/21 23:26:48;;;;;;;21.92;16.30;;;;;;;;;;5035526;28;20064;-64
2023/05/21 23:29:14;;;;;;;21.38;16.45;;;;;;;;;;5036232;28;20119;-64
2023/05/21 23:31:40;;;;;;;21.73;16.10;;;;;;;;;;5034038;28;20984;-64
2023/05/21 23:34:06;;;;;;;19.65;17.55;;;;;;;;;;5034816;28;20049;-64
2023/05/21 23:36:32;;;;;;;18.00;15.68;;;;;;;;;;5035363;28;20033;-64
2023/05/21 23:38:59;;;;;;;19.50;16.17;;;;;;;;;;5034115;28;20090;-64
2023/05/21 23:41:26;;;;;;;19.65;16.00;;;;;;;;;;5036483;28;20661;-64
2023/05/21 23:43:53;;;;;;;19.38;16.52;;;;;;;;;;5035335;28;20127;-64
2023/05/21 23:46:19;;;;;;;18.65;16.35;;;;;;;;;;5035620;28;20029;-64
2023/05/21 23:48:45;;;;;;;20.50;15.73;;;;;;;;;;5036277;28;20045;-64
2023/05/21 23:51:11;;;;;;;17.13;15.32;;;;;;;;;;5036019;28;20083;-64
2023/05/21 23:53:37;;;;;;;20.85;16.02;;;;;;;;;;5035326;28;20033;-64
2023/05/21 23:56:03;;;;;;;20.77;14.77;;;;;;;;;;5035253;28;20029;-64
2023/05/21 23:58:29;;;;;;;19.58;16.17;;;;;;;;;;5036097;28;20033;-64
